createdAt,value
2023-04-10T00:00:20.691Z,1023
2023-04-10T00:01:36.000Z,1022.9
2023-04-10T00:02:52.000Z,1023
2023-04-10T00:04:08.000Z,1023
2023-04-10T00:05:25.273Z,1023
2023-04-10T00:06:41.000Z,1023
2023-04-10T00:07:57.000Z,1023
2023-04-10T00:09:13.000Z,1022.9
2023-04-10T00:10:29.000Z,1022.9
2023-04-10T00:11:45.000Z,1023
2023-04-10T00:13:01.000Z,1023
2023-04-10T00:14:17.000Z,1023
2023-04-10T00:15:33.453Z,1022.9
2023-04-10T00:16:49.000Z,1022.9
2023-04-10T00:18:05.000Z,1023
2023-04-10T00:19:21.887Z,1023
2023-04-10T00:20:37.000Z,1022.9
2023-04-10T00:21:53.000Z,1022.9
2023-04-10T00:23:09.000Z,1023
2023-04-10T00:24:24.000Z,1023
2023-04-10T00:25:39.684Z,1023
2023-04-10T00:26:54.000Z,1022.9
2023-04-10T00:28:10.995Z,1022.9
2023-04-10T00:29:26.000Z,1022.9
2023-04-10T00:30:43.000Z,1022.9
2023-04-10T00:31:59.000Z,1022.9
2023-04-10T00:33:15.000Z,1022.9
2023-04-10T00:34:31.000Z,1023
2023-04-10T00:35:47.000Z,1022.9
2023-04-10T00:37:03.000Z,1023
2023-04-10T00:38:20.153Z,1022.9
2023-04-10T00:39:36.000Z,1022.9
2023-04-10T00:40:52.000Z,1022.9
2023-04-10T00:42:08.000Z,1022.9
2023-04-10T00:43:23.000Z,1022.9
2023-04-10T00:44:39.000Z,1022.9
2023-04-10T00:45:55.000Z,1022.9
2023-04-10T00:47:12.185Z,1022.9
2023-04-10T00:48:28.000Z,1022.9
2023-04-10T00:49:44.000Z,1022.9
2023-04-10T00:51:00.000Z,1022.9
2023-04-10T00:52:15.000Z,1023
2023-04-10T00:53:30.000Z,1022.9
2023-04-10T00:54:46.000Z,1022.9
2023-04-10T00:56:02.280Z,1022.9
2023-04-10T00:57:17.000Z,1022.9
2023-04-10T00:58:33.592Z,1022.9
2023-04-10T00:59:49.728Z,1022.9
2023-04-10T01:01:05.877Z,1022.9
2023-04-10T01:02:21.000Z,1022.9
2023-04-10T01:03:37.000Z,1022.9
2023-04-10T01:04:54.000Z,1022.9
2023-04-10T01:06:10.000Z,1022.9
2023-04-10T01:07:26.000Z,1022.9
2023-04-10T01:08:42.000Z,1022.8
2023-04-10T01:09:58.000Z,1022.8
2023-04-10T01:11:14.000Z,1022.9
2023-04-10T01:12:30.000Z,1022.9
2023-04-10T01:13:46.000Z,1022.8
2023-04-10T01:15:02.000Z,1022.8
2023-04-10T01:16:18.000Z,1022.9
2023-04-10T01:17:34.000Z,1022.8
2023-04-10T01:18:50.000Z,1022.8
2023-04-10T01:20:06.000Z,1022.8
2023-04-10T01:21:22.000Z,1022.7
2023-04-10T01:22:38.000Z,1022.8
2023-04-10T01:23:53.000Z,1022.7
2023-04-10T01:25:09.000Z,1022.7
2023-04-10T01:26:24.000Z,1022.7
2023-04-10T01:27:40.033Z,1022.8
2023-04-10T01:28:55.000Z,1022.7
2023-04-10T01:30:12.000Z,1022.8
2023-04-10T01:31:28.000Z,1022.8
2023-04-10T01:32:44.613Z,1022.8
2023-04-10T01:34:00.000Z,1022.8
2023-04-10T01:35:16.000Z,1022.8
2023-04-10T01:36:32.000Z,1022.7
2023-04-10T01:37:48.000Z,1022.7
2023-04-10T01:39:05.000Z,1022.7
2023-04-10T01:40:21.000Z,1022.7
2023-04-10T01:41:37.631Z,1022.6
2023-04-10T01:42:53.000Z,1022.6
2023-04-10T01:44:08.000Z,1022.6
2023-04-10T01:45:25.080Z,1022.6
2023-04-10T01:46:41.225Z,1022.6
2023-04-10T01:47:57.000Z,1022.6
2023-04-10T01:49:13.000Z,1022.6
2023-04-10T01:50:29.000Z,1022.6
2023-04-10T01:51:45.000Z,1022.6
2023-04-10T01:53:00.983Z,1022.5
2023-04-10T01:54:17.127Z,1022.6
2023-04-10T01:55:32.289Z,1022.5
2023-04-10T01:56:48.000Z,1022.4
2023-04-10T01:58:03.607Z,1022.4
2023-04-10T01:59:18.772Z,1022.4
2023-04-10T02:00:34.000Z,1022.4
2023-04-10T02:01:50.000Z,1022.5
2023-04-10T02:03:07.206Z,1022.4
2023-04-10T02:04:23.000Z,1022.3
2023-04-10T02:05:39.501Z,1022.3
2023-04-10T02:06:55.000Z,1022.3
2023-04-10T02:08:11.000Z,1022.2
2023-04-10T02:09:27.000Z,1022.2
2023-04-10T02:10:44.079Z,1022.3
2023-04-10T02:12:00.000Z,1022.3
2023-04-10T02:13:16.000Z,1022.3
2023-04-10T02:14:32.513Z,1022.2
2023-04-10T02:15:47.678Z,1022.2
2023-04-10T02:17:03.000Z,1022.2
2023-04-10T02:18:19.000Z,1022.2
2023-04-10T02:19:35.000Z,1022.2
2023-04-10T02:20:52.000Z,1022.2
2023-04-10T02:22:08.000Z,1022.2
2023-04-10T02:23:24.000Z,1022.2
2023-04-10T02:24:39.000Z,1022.1
2023-04-10T02:25:54.000Z,1022.1
2023-04-10T02:27:09.000Z,1022
2023-04-10T02:28:24.000Z,1022
2023-04-10T02:29:41.000Z,1022
2023-04-10T02:30:57.000Z,1022
2023-04-10T02:32:13.000Z,1022
2023-04-10T02:34:45.000Z,1022
2023-04-10T02:36:01.000Z,1022
2023-04-10T02:37:18.000Z,1021.9
2023-04-10T02:38:34.000Z,1021.9
2023-04-10T02:39:50.000Z,1021.8
2023-04-10T02:41:06.000Z,1021.8
2023-04-10T02:42:22.000Z,1021.8
2023-04-10T02:43:38.000Z,1021.8
2023-04-10T02:44:53.000Z,1021.8
2023-04-10T02:46:10.000Z,1021.7
2023-04-10T02:47:26.000Z,1021.7
2023-04-10T02:48:42.000Z,1021.7
2023-04-10T02:49:58.000Z,1021.7
2023-04-10T02:51:14.848Z,1021.6
2023-04-10T02:52:30.000Z,1021.6
2023-04-10T02:53:46.000Z,1021.6
2023-04-10T02:55:02.000Z,1021.6
2023-04-10T02:56:17.000Z,1021.6
2023-04-10T02:57:32.000Z,1021.6
2023-04-10T02:58:47.000Z,1021.5
2023-04-10T03:00:03.000Z,1021.5
2023-04-10T03:01:20.104Z,1021.6
2023-04-10T03:02:36.246Z,1021.5
2023-04-10T03:03:52.000Z,1021.5
2023-04-10T03:05:08.000Z,1021.5
2023-04-10T03:06:24.000Z,1021.4
2023-04-10T03:07:40.837Z,1021.5
2023-04-10T03:08:56.977Z,1021.4
2023-04-10T03:10:12.000Z,1021.4
2023-04-10T03:11:29.000Z,1021.4
2023-04-10T03:12:45.000Z,1021.4
2023-04-10T03:14:01.000Z,1021.4
2023-04-10T03:15:16.000Z,1021.4
2023-04-10T03:16:32.000Z,1021.4
2023-04-10T03:17:48.000Z,1021.4
2023-04-10T03:19:04.000Z,1021.4
2023-04-10T03:20:21.000Z,1021.4
2023-04-10T03:21:37.000Z,1021.4
2023-04-10T03:22:53.000Z,1021.4
2023-04-10T03:24:08.000Z,1021.4
2023-04-10T03:25:23.000Z,1021.4
2023-04-10T03:26:39.000Z,1021.4
2023-04-10T03:27:55.000Z,1021.4
2023-04-10T03:29:12.000Z,1021.4
2023-04-10T03:30:28.508Z,1021.4
2023-04-10T03:31:43.000Z,1021.4
2023-04-10T03:32:59.000Z,1021.4
2023-04-10T03:34:15.965Z,1021.4
2023-04-10T03:35:31.000Z,1021.4
2023-04-10T03:36:48.000Z,1021.4
2023-04-10T03:38:04.403Z,1021.4
2023-04-10T03:39:20.000Z,1021.4
2023-04-10T03:40:36.000Z,1021.3
2023-04-10T03:41:52.000Z,1021.4
2023-04-10T03:43:08.987Z,1021.4
2023-04-10T03:44:25.148Z,1021.4
2023-04-10T03:45:41.000Z,1021.3
2023-04-10T03:46:57.000Z,1021.3
2023-04-10T03:48:12.000Z,1021.3
2023-04-10T03:49:28.000Z,1021.3
2023-04-10T03:50:43.000Z,1021.3
2023-04-10T03:51:58.000Z,1021.3
2023-04-10T03:53:14.000Z,1021.3
2023-04-10T03:54:30.381Z,1021.3
2023-04-10T03:55:45.000Z,1021.3
2023-04-10T03:57:01.000Z,1021.2
2023-04-10T03:58:17.000Z,1021.2
2023-04-10T03:59:33.975Z,1021.2
2023-04-10T04:00:49.000Z,1021.2
2023-04-10T04:02:06.000Z,1021.2
2023-04-10T04:03:22.000Z,1021.2
2023-04-10T04:04:38.000Z,1021.1
2023-04-10T04:05:54.000Z,1021.2
2023-04-10T04:07:10.000Z,1021.1
2023-04-10T04:08:26.000Z,1021.2
2023-04-10T04:09:42.000Z,1021.1
2023-04-10T04:10:59.291Z,1021.2
2023-04-10T04:12:14.000Z,1021.1
2023-04-10T04:13:30.000Z,1021.1
2023-04-10T04:14:46.000Z,1021.1
2023-04-10T04:16:02.000Z,1021.1
2023-04-10T04:17:19.039Z,1021.1
2023-04-10T04:18:34.000Z,1021.1
2023-04-10T04:19:51.000Z,1021.1
2023-04-10T04:21:06.000Z,1021.1
2023-04-10T04:22:21.000Z,1021.2
2023-04-10T04:23:36.000Z,1021.1
2023-04-10T04:24:51.991Z,1021
2023-04-10T04:26:06.000Z,1021.1
2023-04-10T04:27:22.000Z,1021.1
2023-04-10T04:29:54.000Z,1021.1
2023-04-10T04:31:10.000Z,1021.1
2023-04-10T04:32:26.909Z,1021.1
2023-04-10T04:33:42.000Z,1021.1
2023-04-10T04:34:58.000Z,1021.1
2023-04-10T04:36:15.342Z,1021
2023-04-10T04:37:31.000Z,1021
2023-04-10T04:38:47.000Z,1021.1
2023-04-10T04:40:03.000Z,1021
2023-04-10T04:41:19.000Z,1021
2023-04-10T04:42:36.064Z,1021
2023-04-10T04:43:50.000Z,1021.1
2023-04-10T04:45:07.377Z,1021
2023-04-10T04:46:23.000Z,1021
2023-04-10T04:47:39.000Z,1021
2023-04-10T04:48:55.000Z,1021
2023-04-10T04:50:11.000Z,1020.9
2023-04-10T04:51:27.000Z,1021
2023-04-10T04:52:44.000Z,1021
2023-04-10T04:53:59.000Z,1021
2023-04-10T04:55:14.583Z,1020.9
2023-04-10T04:56:30.000Z,1021
2023-04-10T04:57:46.000Z,1020.9
2023-04-10T04:59:01.000Z,1021
2023-04-10T05:00:17.207Z,1020.9
2023-04-10T05:01:33.351Z,1020.9
2023-04-10T05:02:49.000Z,1020.9
2023-04-10T05:04:05.000Z,1020.9
2023-04-10T05:05:21.000Z,1020.9
2023-04-10T05:06:37.935Z,1020.8
2023-04-10T05:07:53.000Z,1020.8
2023-04-10T05:09:09.000Z,1020.8
2023-04-10T05:10:26.000Z,1020.7
2023-04-10T05:11:42.000Z,1020.8
2023-04-10T05:12:58.000Z,1020.7
2023-04-10T05:14:14.000Z,1020.7
2023-04-10T05:15:30.000Z,1020.7
2023-04-10T05:16:45.000Z,1020.7
2023-04-10T05:18:02.000Z,1020.7
2023-04-10T05:19:18.412Z,1020.8
2023-04-10T05:20:34.551Z,1020.8
2023-04-10T05:21:50.000Z,1020.7
2023-04-10T05:23:06.000Z,1020.7
2023-04-10T05:24:22.000Z,1020.7
2023-04-10T05:25:37.000Z,1020.6
2023-04-10T05:26:53.000Z,1020.7
2023-04-10T05:28:08.497Z,1020.7
2023-04-10T05:29:23.665Z,1020.8
2023-04-10T05:30:39.000Z,1020.7
2023-04-10T05:31:55.000Z,1020.7
2023-04-10T05:33:11.000Z,1020.7
2023-04-10T05:34:28.000Z,1020.6
2023-04-10T05:35:44.000Z,1020.7
2023-04-10T05:37:00.000Z,1020.6
2023-04-10T05:38:16.000Z,1020.6
2023-04-10T05:39:32.000Z,1020.6
2023-04-10T05:40:48.000Z,1020.6
2023-04-10T05:42:04.000Z,1020.5
2023-04-10T05:43:21.253Z,1020.6
2023-04-10T05:44:37.000Z,1020.6
2023-04-10T05:45:52.000Z,1020.6
2023-04-10T05:47:08.000Z,1020.6
2023-04-10T05:48:24.000Z,1020.6
2023-04-10T05:49:40.000Z,1020.5
2023-04-10T05:50:56.000Z,1020.5
2023-04-10T05:52:13.000Z,1020.5
2023-04-10T05:53:29.000Z,1020.4
2023-04-10T05:54:44.606Z,1020.4
2023-04-10T05:55:59.000Z,1020.5
2023-04-10T05:57:15.913Z,1020.4
2023-04-10T05:58:31.000Z,1020.4
2023-04-10T05:59:47.000Z,1020.4
2023-04-10T06:01:02.401Z,1020.4
2023-04-10T06:02:18.000Z,1020.3
2023-04-10T06:03:34.000Z,1020.3
2023-04-10T06:04:50.000Z,1020.3
2023-04-10T06:06:06.000Z,1020.3
2023-04-10T06:07:22.000Z,1020.3
2023-04-10T06:08:39.000Z,1020.2
2023-04-10T06:09:55.000Z,1020.2
2023-04-10T06:11:11.559Z,1020.2
2023-04-10T06:12:27.000Z,1020.1
2023-04-10T06:13:43.000Z,1020.1
2023-04-10T06:14:59.000Z,1020.1
2023-04-10T06:16:15.000Z,1020.1
2023-04-10T06:18:47.000Z,1020.1
2023-04-10T06:20:03.000Z,1020
2023-04-10T06:21:19.000Z,1020
2023-04-10T06:22:35.000Z,1020.1
2023-04-10T06:23:51.000Z,1020.1
2023-04-10T06:25:07.000Z,1020.1
2023-04-10T06:26:24.000Z,1020.1
2023-04-10T06:27:39.000Z,1020
2023-04-10T06:28:54.000Z,1020.1
2023-04-10T06:30:09.000Z,1020.1
2023-04-10T06:31:24.000Z,1020
2023-04-10T06:32:40.000Z,1020.1
2023-04-10T06:33:57.000Z,1020
2023-04-10T06:35:13.424Z,1020
2023-04-10T06:36:29.000Z,1020
2023-04-10T06:37:45.000Z,1020.1
2023-04-10T06:39:01.000Z,1020
2023-04-10T06:40:17.000Z,1020.1
2023-04-10T06:41:33.000Z,1020
2023-04-10T06:42:50.000Z,1020
2023-04-10T06:44:06.000Z,1020
2023-04-10T06:45:22.000Z,1020
2023-04-10T06:46:38.000Z,1019.9
2023-04-10T06:47:53.895Z,1019.9
2023-04-10T06:49:09.000Z,1020
2023-04-10T06:50:25.000Z,1020
2023-04-10T06:51:42.000Z,1020.1
2023-04-10T06:52:58.000Z,1020
2023-04-10T06:54:14.000Z,1020
2023-04-10T06:55:30.000Z,1019.9
2023-04-10T06:56:45.000Z,1020
2023-04-10T06:58:00.000Z,1020
2023-04-10T06:59:16.000Z,1020
2023-04-10T07:00:31.000Z,1020
2023-04-10T07:01:47.000Z,1020
2023-04-10T07:03:03.000Z,1020
2023-04-10T07:04:19.000Z,1020
2023-04-10T07:05:35.000Z,1020
2023-04-10T07:06:52.157Z,1019.9
2023-04-10T07:08:08.000Z,1020
2023-04-10T07:09:24.000Z,1020
2023-04-10T07:10:40.000Z,1020
2023-04-10T07:11:56.000Z,1020.1
2023-04-10T07:13:12.882Z,1020
2023-04-10T07:14:28.000Z,1020.1
2023-04-10T07:15:44.000Z,1020
2023-04-10T07:17:00.000Z,1020
2023-04-10T07:18:16.000Z,1020
2023-04-10T07:19:32.000Z,1020
2023-04-10T07:20:48.000Z,1019.9
2023-04-10T07:22:04.000Z,1019.9
2023-04-10T07:23:20.000Z,1019.9
2023-04-10T07:24:36.000Z,1020
2023-04-10T07:25:53.000Z,1019.9
2023-04-10T07:27:08.000Z,1020
2023-04-10T07:28:23.000Z,1019.9
2023-04-10T07:29:39.000Z,1019.9
2023-04-10T07:30:54.000Z,1019.9
2023-04-10T07:32:09.000Z,1019.9
2023-04-10T07:33:26.000Z,1019.9
2023-04-10T07:34:42.000Z,1019.9
2023-04-10T07:35:58.610Z,1019.8
2023-04-10T07:37:14.000Z,1019.9
2023-04-10T07:38:30.000Z,1019.9
2023-04-10T07:39:47.046Z,1019.9
2023-04-10T07:41:02.000Z,1019.9
2023-04-10T07:42:19.000Z,1019.9
2023-04-10T07:43:35.000Z,1019.9
2023-04-10T07:44:51.000Z,1019.8
2023-04-10T07:46:06.000Z,1019.8
2023-04-10T07:47:22.000Z,1019.8
2023-04-10T07:48:38.000Z,1019.8
2023-04-10T07:49:54.000Z,1019.8
2023-04-10T07:51:11.000Z,1019.7
2023-04-10T07:52:27.000Z,1019.8
2023-04-10T07:53:43.000Z,1019.7
2023-04-10T07:54:59.805Z,1019.7
2023-04-10T07:56:15.000Z,1019.8
2023-04-10T07:57:30.000Z,1019.7
2023-04-10T07:58:46.000Z,1019.7
2023-04-10T08:00:02.000Z,1019.7
2023-04-10T08:01:18.000Z,1019.6
2023-04-10T08:02:34.000Z,1019.5
2023-04-10T08:03:50.000Z,1020.1
2023-04-10T08:05:06.000Z,1019.6
2023-04-10T08:06:22.000Z,1019.6
2023-04-10T08:07:39.000Z,1019.6
2023-04-10T08:08:55.000Z,1019.7
2023-04-10T08:10:11.000Z,1019.6
2023-04-10T08:11:27.000Z,1019.6
2023-04-10T08:12:43.000Z,1019.6
2023-04-10T08:13:59.000Z,1019.5
2023-04-10T08:15:14.000Z,1019.6
2023-04-10T08:16:31.000Z,1019.5
2023-04-10T08:17:47.000Z,1019.7
2023-04-10T08:19:03.000Z,1019.5
2023-04-10T08:20:19.000Z,1019.5
2023-04-10T08:21:35.000Z,1019.5
2023-04-10T08:22:51.000Z,1019.4
2023-04-10T08:24:07.000Z,1019.5
2023-04-10T08:25:22.400Z,1019.5
2023-04-10T08:26:38.000Z,1019.4
2023-04-10T08:27:54.000Z,1019.3
2023-04-10T08:29:10.836Z,1019.4
2023-04-10T08:30:26.000Z,1019.4
2023-04-10T08:31:43.133Z,1019.3
2023-04-10T08:32:59.000Z,1019.3
2023-04-10T08:34:15.000Z,1019.3
2023-04-10T08:35:31.000Z,1019.2
2023-04-10T08:36:47.000Z,1019.3
2023-04-10T08:38:03.000Z,1019.3
2023-04-10T08:39:20.014Z,1019.2
2023-04-10T08:40:35.000Z,1019.4
2023-04-10T08:41:51.000Z,1019.3
2023-04-10T08:43:07.000Z,1019.2
2023-04-10T08:44:23.000Z,1019.2
2023-04-10T08:45:39.000Z,1019.2
2023-04-10T08:46:55.000Z,1019.2
2023-04-10T08:48:11.000Z,1019.2
2023-04-10T08:49:27.000Z,1019.2
2023-04-10T08:50:43.000Z,1019.1
2023-04-10T08:51:58.000Z,1019.1
2023-04-10T08:53:13.000Z,1019.2
2023-04-10T08:54:28.000Z,1019.1
2023-04-10T08:55:43.000Z,1019
2023-04-10T08:56:58.000Z,1019
2023-04-10T08:58:15.000Z,1019
2023-04-10T08:59:31.000Z,1019.1
2023-04-10T09:00:47.000Z,1019.1
2023-04-10T09:02:03.783Z,1018.9
2023-04-10T09:03:19.931Z,1019
2023-04-10T09:04:35.000Z,1019
2023-04-10T09:05:51.000Z,1018.9
2023-04-10T09:07:08.000Z,1019
2023-04-10T09:08:24.000Z,1019
2023-04-10T09:09:40.000Z,1019.1
2023-04-10T09:10:56.000Z,1018.9
2023-04-10T09:12:12.963Z,1018.9
2023-04-10T09:13:28.127Z,1018.8
2023-04-10T09:14:44.000Z,1018.8
2023-04-10T09:16:00.000Z,1018.8
2023-04-10T09:17:16.000Z,1018.8
2023-04-10T09:18:32.000Z,1018.7
2023-04-10T09:19:48.000Z,1018.7
2023-04-10T09:21:04.000Z,1018.6
2023-04-10T09:22:19.000Z,1018.7
2023-04-10T09:23:35.000Z,1018.7
2023-04-10T09:24:51.000Z,1018.7
2023-04-10T09:26:07.000Z,1018.9
2023-04-10T09:27:23.000Z,1018.5
2023-04-10T09:28:39.000Z,1018.6
2023-04-10T09:29:55.000Z,1018.6
2023-04-10T09:31:11.000Z,1018.5
2023-04-10T09:32:28.000Z,1018.6
2023-04-10T09:33:44.000Z,1018.5
2023-04-10T09:35:00.000Z,1018.4
2023-04-10T09:36:16.000Z,1018.3
2023-04-10T09:37:32.000Z,1018.4
2023-04-10T09:38:48.000Z,1018.3
2023-04-10T09:40:04.256Z,1018.3
2023-04-10T09:41:20.000Z,1018.3
2023-04-10T09:42:36.000Z,1018.2
2023-04-10T09:43:52.000Z,1018.2
2023-04-10T09:45:08.000Z,1018.3
2023-04-10T09:46:24.000Z,1018.2
2023-04-10T09:47:40.000Z,1018.1
2023-04-10T09:48:56.000Z,1018.2
2023-04-10T09:50:11.000Z,1018.1
2023-04-10T09:51:26.000Z,1018.1
2023-04-10T09:52:41.000Z,1018.1
2023-04-10T09:53:57.000Z,1018
2023-04-10T09:55:13.000Z,1017.9
2023-04-10T09:56:30.000Z,1018
2023-04-10T09:57:46.000Z,1017.9
2023-04-10T09:59:02.000Z,1017.9
2023-04-10T10:00:18.000Z,1018
2023-04-10T10:01:34.000Z,1017.9
2023-04-10T10:02:50.000Z,1017.9
2023-04-10T10:04:06.000Z,1017.9
2023-04-10T10:05:23.000Z,1017.9
2023-04-10T10:06:39.000Z,1017.8
2023-04-10T10:07:55.000Z,1017.8
2023-04-10T10:09:10.000Z,1017.9
2023-04-10T10:10:26.000Z,1017.8
2023-04-10T10:11:42.000Z,1017.8
2023-04-10T10:12:58.000Z,1017.8
2023-04-10T10:14:15.000Z,1017.7
2023-04-10T10:15:31.000Z,1017.7
2023-04-10T10:16:47.000Z,1017.6
2023-04-10T10:18:02.000Z,1017.6
2023-04-10T10:19:17.000Z,1017.6
2023-04-10T10:20:33.000Z,1017.5
2023-04-10T10:21:50.000Z,1017.5
2023-04-10T10:23:06.000Z,1017.4
2023-04-10T10:24:22.000Z,1017.5
2023-04-10T10:25:38.000Z,1017.4
2023-04-10T10:26:54.000Z,1017.4
2023-04-10T10:28:10.000Z,1017.3
2023-04-10T10:29:26.000Z,1017.3
2023-04-10T10:30:43.000Z,1017.4
2023-04-10T10:31:59.000Z,1017.3
2023-04-10T10:33:15.000Z,1017.2
2023-04-10T10:34:31.000Z,1017.2
2023-04-10T10:35:46.000Z,1017.1
2023-04-10T10:37:02.000Z,1017.1
2023-04-10T10:38:18.000Z,1017.1
2023-04-10T10:39:35.000Z,1017
2023-04-10T10:40:51.000Z,1017.1
2023-04-10T10:42:07.000Z,1017.1
2023-04-10T10:43:23.000Z,1017
2023-04-10T10:44:38.000Z,1016.9
2023-04-10T10:45:53.000Z,1016.9
2023-04-10T10:47:09.000Z,1016.9
2023-04-10T10:48:24.000Z,1017
2023-04-10T10:49:40.000Z,1016.9
2023-04-10T10:50:56.000Z,1016.9
2023-04-10T10:52:12.000Z,1016.8
2023-04-10T10:53:28.000Z,1016.8
2023-04-10T10:54:45.153Z,1016.7
2023-04-10T10:56:01.000Z,1016.8
2023-04-10T10:57:17.000Z,1016.7
2023-04-10T10:58:33.590Z,1016.7
2023-04-10T10:59:49.000Z,1016.7
2023-04-10T11:01:05.000Z,1016.7
2023-04-10T11:02:21.000Z,1016.6
2023-04-10T11:03:37.000Z,1016.6
2023-04-10T11:04:53.000Z,1016.6
2023-04-10T11:06:09.000Z,1016.6
2023-04-10T11:07:25.000Z,1016.5
2023-04-10T11:08:41.000Z,1016.5
2023-04-10T11:09:57.000Z,1016.3
2023-04-10T11:11:13.000Z,1016.4
2023-04-10T11:12:29.000Z,1016.4
2023-04-10T11:13:45.000Z,1016.3
2023-04-10T11:15:00.000Z,1016.2
2023-04-10T11:16:15.000Z,1016.4
2023-04-10T11:17:30.887Z,1016.3
2023-04-10T11:18:46.000Z,1016.3
2023-04-10T11:20:01.000Z,1016.3
2023-04-10T11:21:17.000Z,1016.3
2023-04-10T11:22:33.000Z,1016.3
2023-04-10T11:23:49.000Z,1016.2
2023-04-10T11:25:05.000Z,1016.2
2023-04-10T11:26:21.000Z,1016.1
2023-04-10T11:27:37.000Z,1016.1
2023-04-10T11:28:54.000Z,1016.1
2023-04-10T11:30:10.000Z,1016.2
2023-04-10T11:31:26.000Z,1016
2023-04-10T11:32:42.000Z,1016
2023-04-10T11:33:58.000Z,1015.9
2023-04-10T11:35:14.000Z,1015.9
2023-04-10T11:36:30.000Z,1016
2023-04-10T11:37:46.000Z,1015.9
2023-04-10T11:39:02.000Z,1015.9
2023-04-10T11:40:18.000Z,1015.9
2023-04-10T11:41:34.000Z,1015.9
2023-04-10T11:42:50.000Z,1015.9
2023-04-10T11:44:06.000Z,1015.9
2023-04-10T11:45:22.000Z,1015.8
2023-04-10T11:46:38.000Z,1015.9
2023-04-10T11:47:53.000Z,1015.8
2023-04-10T11:49:09.000Z,1015.7
2023-04-10T11:50:25.000Z,1015.8
2023-04-10T11:51:41.000Z,1015.7
2023-04-10T11:52:57.000Z,1015.7
2023-04-10T11:54:14.000Z,1015.7
2023-04-10T11:55:30.000Z,1015.7
2023-04-10T11:56:46.000Z,1015.5
2023-04-10T11:58:02.000Z,1015.6
2023-04-10T11:59:18.000Z,1015.5
2023-04-10T12:00:33.000Z,1015.5
2023-04-10T12:01:49.000Z,1015.5
2023-04-10T12:03:06.000Z,1015.5
2023-04-10T12:04:22.000Z,1015.5
2023-04-10T12:05:38.000Z,1015.4
2023-04-10T12:06:54.000Z,1015.6
2023-04-10T12:08:10.000Z,1015.5
2023-04-10T12:09:26.000Z,1015.5
2023-04-10T12:10:42.000Z,1015.4
2023-04-10T12:11:59.000Z,1015.4
2023-04-10T12:13:14.000Z,1015.3
2023-04-10T12:14:29.000Z,1015.5
2023-04-10T12:15:44.000Z,1015.4
2023-04-10T12:17:00.000Z,1015.4
2023-04-10T12:18:15.000Z,1015.2
2023-04-10T12:19:32.000Z,1015.3
2023-04-10T12:20:48.000Z,1015.3
2023-04-10T12:22:04.000Z,1015.3
2023-04-10T12:23:20.000Z,1015.3
2023-04-10T12:24:36.000Z,1015.2
2023-04-10T12:25:52.000Z,1015.2
2023-04-10T12:27:08.000Z,1015.1
2023-04-10T12:28:25.000Z,1015.1
2023-04-10T12:29:41.000Z,1015.1
2023-04-10T12:30:57.000Z,1015.1
2023-04-10T12:32:13.000Z,1015.1
2023-04-10T12:33:29.000Z,1014.9
2023-04-10T12:34:44.000Z,1014.9
2023-04-10T12:36:00.000Z,1015
2023-04-10T12:37:17.000Z,1015
2023-04-10T12:38:33.000Z,1015.1
2023-04-10T12:39:49.000Z,1014.9
2023-04-10T12:41:05.000Z,1015
2023-04-10T12:42:20.000Z,1014.9
2023-04-10T12:43:35.000Z,1014.9
2023-04-10T12:44:52.000Z,1014.9
2023-04-10T12:46:08.000Z,1014.9
2023-04-10T12:47:24.000Z,1014.8
2023-04-10T12:48:40.000Z,1014.8
2023-04-10T12:49:56.000Z,1014.7
2023-04-10T12:51:12.000Z,1014.7
2023-04-10T12:52:28.000Z,1014.6
2023-04-10T12:53:45.000Z,1014.7
2023-04-10T12:55:01.000Z,1014.6
2023-04-10T12:56:17.000Z,1014.5
2023-04-10T12:57:33.000Z,1014.4
2023-04-10T12:58:49.000Z,1014.5
2023-04-10T13:00:04.000Z,1014.4
2023-04-10T13:01:20.000Z,1014.4
2023-04-10T13:02:37.000Z,1014.3
2023-04-10T13:03:53.000Z,1014.4
2023-04-10T13:05:09.000Z,1014.2
2023-04-10T13:06:25.000Z,1014.2
2023-04-10T13:07:41.000Z,1014.2
2023-04-10T13:08:56.000Z,1014.2
2023-04-10T13:10:12.000Z,1014.2
2023-04-10T13:11:27.000Z,1014.1
2023-04-10T13:12:43.000Z,1014.1
2023-04-10T13:13:58.000Z,1014.1
2023-04-10T13:15:14.000Z,1014.1
2023-04-10T13:16:30.000Z,1014.1
2023-04-10T13:17:46.000Z,1013.9
2023-04-10T13:19:03.000Z,1014
2023-04-10T13:20:19.000Z,1013.9
2023-04-10T13:21:35.000Z,1013.9
2023-04-10T13:22:51.000Z,1013.8
2023-04-10T13:24:07.000Z,1013.8
2023-04-10T13:25:23.000Z,1013.7
2023-04-10T13:26:39.000Z,1013.6
2023-04-10T13:27:56.000Z,1013.5
2023-04-10T13:29:12.000Z,1013.6
2023-04-10T13:30:27.000Z,1013.5
2023-04-10T13:31:43.000Z,1013.4
2023-04-10T13:32:59.000Z,1013.5
2023-04-10T13:34:15.000Z,1013.5
2023-04-10T13:35:32.000Z,1013.4
2023-04-10T13:36:48.000Z,1013.4
2023-04-10T13:38:03.000Z,1013.5
2023-04-10T13:39:18.000Z,1013.3
2023-04-10T13:40:33.000Z,1013.4
2023-04-10T13:41:48.000Z,1013.3
2023-04-10T13:43:04.000Z,1013.2
2023-04-10T13:44:21.000Z,1013.2
2023-04-10T13:45:37.000Z,1013.2
2023-04-10T13:46:53.000Z,1013.2
2023-04-10T13:48:09.000Z,1013
2023-04-10T13:49:25.000Z,1013
2023-04-10T13:50:41.000Z,1013
2023-04-10T13:51:58.000Z,1013
2023-04-10T13:53:14.000Z,1013
2023-04-10T13:54:30.000Z,1012.9
2023-04-10T13:55:46.000Z,1013
2023-04-10T13:57:02.000Z,1012.9
2023-04-10T13:58:17.000Z,1012.8
2023-04-10T13:59:33.000Z,1012.9
2023-04-10T14:00:50.000Z,1012.9
2023-04-10T14:02:06.000Z,1012.9
2023-04-10T14:03:22.000Z,1012.8
2023-04-10T14:04:38.000Z,1012.7
2023-04-10T14:05:54.000Z,1012.6
2023-04-10T14:07:09.000Z,1012.6
2023-04-10T14:08:24.000Z,1012.6
2023-04-10T14:09:40.000Z,1012.6
2023-04-10T14:10:55.000Z,1012.5
2023-04-10T14:13:27.000Z,1012.4
2023-04-10T14:14:43.000Z,1012.5
2023-04-10T14:15:59.000Z,1012.3
2023-04-10T14:17:16.000Z,1012.3
2023-04-10T14:18:32.000Z,1012.4
2023-04-10T14:19:48.000Z,1012.3
2023-04-10T14:21:04.000Z,1012.2
2023-04-10T14:22:20.000Z,1012.1
2023-04-10T14:23:36.000Z,1012.2
2023-04-10T14:24:52.000Z,1012.2
2023-04-10T14:26:09.000Z,1012.3
2023-04-10T14:27:24.000Z,1012.2
2023-04-10T14:28:40.000Z,1012.2
2023-04-10T14:29:56.000Z,1012.1
2023-04-10T14:31:12.000Z,1012.1
2023-04-10T14:32:28.000Z,1012
2023-04-10T14:33:44.000Z,1011.9
2023-04-10T14:35:01.000Z,1012.1
2023-04-10T14:37:33.000Z,1011.9
2023-04-10T14:38:48.000Z,1012.1
2023-04-10T14:40:03.000Z,1011.9
2023-04-10T14:41:18.000Z,1011.8
2023-04-10T14:42:34.000Z,1011.9
2023-04-10T14:43:50.000Z,1011.9
2023-04-10T14:45:06.000Z,1011.8
2023-04-10T14:46:22.000Z,1011.7
2023-04-10T14:47:38.000Z,1011.8
2023-04-10T14:48:54.000Z,1011.9
2023-04-10T14:50:10.000Z,1011.8
2023-04-10T14:51:27.000Z,1011.7
2023-04-10T14:52:43.000Z,1011.7
2023-04-10T14:53:59.000Z,1011.7
2023-04-10T14:55:15.000Z,1011.6
2023-04-10T14:56:31.000Z,1011.6
2023-04-10T14:57:47.000Z,1011.6
2023-04-10T14:59:03.000Z,1011.5
2023-04-10T15:00:19.000Z,1011.5
2023-04-10T15:01:35.000Z,1011.6
2023-04-10T15:02:51.000Z,1011.5
2023-04-10T15:04:07.000Z,1011.5
2023-04-10T15:05:23.000Z,1011.4
2023-04-10T15:06:39.000Z,1011.3
2023-04-10T15:07:55.000Z,1011.3
2023-04-10T15:09:10.000Z,1011.3
2023-04-10T15:10:26.000Z,1011.2
2023-04-10T15:11:42.000Z,1011.1
2023-04-10T15:12:58.000Z,1011.1
2023-04-10T15:14:14.000Z,1011.1
2023-04-10T15:15:30.000Z,1011.1
2023-04-10T15:16:47.000Z,1011.1
2023-04-10T15:18:03.000Z,1011
2023-04-10T15:19:19.000Z,1011
2023-04-10T15:20:35.000Z,1010.9
2023-04-10T15:21:51.000Z,1010.9
2023-04-10T15:23:07.000Z,1010.8
2023-04-10T15:24:23.000Z,1010.8
2023-04-10T15:25:39.000Z,1010.8
2023-04-10T15:26:55.000Z,1010.7
2023-04-10T15:28:11.000Z,1010.6
2023-04-10T15:29:27.000Z,1010.6
2023-04-10T15:30:43.000Z,1010.5
2023-04-10T15:31:59.000Z,1010.6
2023-04-10T15:33:16.000Z,1010.5
2023-04-10T15:34:31.000Z,1010.4
2023-04-10T15:35:46.000Z,1010.4
2023-04-10T15:37:01.000Z,1010.4
2023-04-10T15:38:16.000Z,1010.2
2023-04-10T15:39:32.000Z,1010.4
2023-04-10T15:40:48.000Z,1010.4
2023-04-10T15:42:03.000Z,1010.2
2023-04-10T15:43:19.000Z,1010.3
2023-04-10T15:44:35.000Z,1010.2
2023-04-10T15:45:51.000Z,1010.2
2023-04-10T15:47:07.000Z,1010.2
2023-04-10T15:48:23.000Z,1010
2023-04-10T15:49:40.000Z,1010.1
2023-04-10T15:50:56.000Z,1010
2023-04-10T15:52:12.000Z,1010
2023-04-10T15:53:28.000Z,1009.9
2023-04-10T15:54:44.000Z,1009.9
2023-04-10T15:56:00.000Z,1010
2023-04-10T15:57:16.000Z,1009.9
2023-04-10T15:58:32.000Z,1010
2023-04-10T15:59:48.000Z,1009.9
2023-04-10T16:01:04.000Z,1009.9
2023-04-10T16:02:20.000Z,1009.9